Paradise Valley, Nevada Weather observations

Data are for 10 minute period ending at time listed.
 Day   Time   Solar   Ave.   Ave.  Ave.  Vector  Max.   Baro.   Total    
  of    of     Rad.   Air    Rel.  Wind   Wind   Wind  Press.  Precip.   
Year   Day            Temp.  Hum.  Speed  Dir.   Gust                    
2016   (PST)  Kw/m2    F      %     mph   deg.    mph    mb.     in.     
-------------------------------------------------------------------------
 119    3:50   0.00   36.1    89    1.3   241     3.5   858.9    0.00 
 119    4:00   0.00   37.0    88    1.7   339     3.8   858.8    0.00 
 119    4:10   0.00   37.6    86    2.9   350     5.0   858.8    0.00 
 119    4:20   0.00   36.3    87    2.2    84     4.2   858.9    0.00 
 119    4:30   0.00   37.3    88    1.5   143     3.1   858.9    0.00 
 119    4:40   0.00   36.5    86    3.0   143     4.3   859.0    0.00 
 119    4:50   0.00   35.2    89    3.8   150     5.0   859.0    0.00 
 119    5:00   0.01   33.9    91    4.4   154     5.1   859.1    0.00 
 119    5:10   0.01   33.9    93    3.7   154     4.6   859.2    0.00 
 119    5:20   0.02   33.7    92    4.0   198     5.0   859.2    0.00 
 119    5:30   0.03   33.9    94    3.1   222     4.1   859.3    0.00 
 119    5:40   0.05   35.4    94    3.6   230     5.5   859.4    0.00 
 119    5:50   0.05   36.6    93    2.9   244     4.9   859.5    0.00 
 119    6:00   0.04   37.8    90    1.8   252     5.9   859.6    0.00 
 119    6:10   0.04   40.0    86    2.6   272     5.8   859.7    0.00 
 119    6:20   0.05   41.9    80    1.2   315     4.5   859.7    0.00 
 119    6:30   0.06   41.4    84    4.4   278     9.6   859.8    0.00 
 119    6:40   0.07   43.4    77    8.9   318    13.2   859.7    0.00 
 119    6:50   0.16   44.6    74    9.3   314    13.2   859.6    0.00 
 119    7:00   0.18   45.6    71    9.4   317    12.7   859.7    0.00 
 119    7:10   0.13   46.0    68   10.0   321    12.8   859.7    0.00 
 119    7:20   0.09   45.6    71   10.3   328    13.8   859.8    0.00 
 119    7:30   0.09   45.0    74    9.0   330    13.2   859.9    0.00 
 119    7:40   0.14   45.3    73    9.2   330    12.4   859.9    0.00 
 119    7:50   0.24   45.7    72   11.7   330    18.0   859.9    0.00 
 119    8:00   0.27   46.4    70   14.9   323    20.2   860.0    0.00 
 119    8:10   0.29   46.6    69   14.6   315    19.0   859.9    0.00 
 119    8:20   0.26   47.1    68   12.3   316    15.6   859.9    0.00 
 119    8:30   0.25   47.4    66   13.2   324    17.6   859.9    0.00 
 119    8:40   0.33   48.2    64   11.3   329    15.2   859.9    0.00 
 119    8:50   0.38   48.9    62   12.2   328    17.2   859.9    0.00 
 119    9:00   0.55   49.9    60    9.9   336    15.9   859.9    0.00 
 119    9:10   0.36   49.6    60   10.5   329    17.1   859.8    0.00 
 119    9:20   0.70   50.7    60   10.6   337    19.7   859.8    0.00 
 119    9:30   0.66   51.7    58   10.0   346    19.0   859.8    0.00 
 119    9:40   0.29   51.4    57   10.4   327    16.7   859.8    0.00 
 119    9:50   0.53   51.7    59    7.8   346    14.0   859.9    0.00 
 119   10:00   0.29   51.0    60    9.9   335    15.9   860.0    0.00 
 119   10:10   0.65   52.0    60    9.8   344    18.6   860.0    0.00 
 119   10:20   0.26   51.0    60   15.3   316    21.9   860.1    0.00 
 119   10:30   0.62   51.6    58   14.3   309    18.2   860.1    0.00 
 119   10:40   0.32   51.5    58   13.0   317    18.3   860.1    0.00 
 119   10:50   0.66   52.9    56   11.6   317    17.2   860.2    0.00 
 119   11:00   0.60   53.4    55   10.4   311    15.6   860.2    0.00 
 119   11:10   0.35   53.2    54    9.6   326    13.4   860.3    0.00 
 119   11:20   0.33   52.8    53    6.7   316    15.9   860.3    0.00 
 119   11:30   0.41   53.4    53    8.1   310    15.3   860.3    0.00 
 119   11:40   0.86   55.2    52    9.2   337    15.9   860.3    0.00 
 119   11:50   0.62   54.3    52   10.1   323    13.9   860.3    0.00 
 119   12:00   0.82   55.0    50    8.1   334    16.7   860.3    0.00 
 119   12:10   0.18   54.1    50    9.4   314    16.9   860.3    0.00 
 119   12:20   0.20   53.4    53   10.5   317    17.5   860.4    0.00 
 119   12:30   0.63   54.8    50    9.8   320    17.2   860.4    0.00 
 119   12:40   0.21   53.9    51   11.4   312    15.8   860.5    0.00 
 119   12:50   0.57   54.6    51   10.0   312    17.0   860.5    0.00 
 119   13:00   0.45   55.1    50   11.8   311    17.8   860.5    0.00 
 119   13:10   0.61   55.9    51   12.3   304    20.2   860.5    0.00 
 119   13:20   0.20   54.6    51   13.4   313    18.3   860.7    0.00 
 119   13:30   0.28   54.4    50   12.9   309    16.7   860.7    0.00 
 119   13:40   0.23   54.7    50   13.1   308    18.8   860.7    0.00 
 119   13:50   0.31   54.7    50   13.9   313    19.0   860.6    0.00 
 119   14:00   0.25   54.9    49   12.8   317    18.6   860.7    0.00 
 119   14:10   0.27   54.3    49   17.1   318    23.0   860.7    0.00 
 119   14:20   0.21   54.1    50   14.7   320    20.4   860.7    0.00 
 119   14:30   0.25   54.2    48   14.6   314    18.9   860.7    0.00 
 119   14:40   0.28   54.8    47   13.6   311    20.2   860.6    0.00 
 119   14:50   0.30   55.3    46   14.0   307    19.4   860.6    0.00 
 119   15:00   0.29   55.5    46   12.7   312    17.2   860.6    0.00 
 119   15:10   0.59   56.6    44   13.4   318    17.8   860.6    0.00 
 119   15:20   0.57   58.1    41   13.9   313    19.6   860.7    0.00 
 119   15:30   0.61   57.7    40   13.3   309    21.3   860.7    0.00 
 119   15:40   0.78   58.8    40   16.0   317    23.2   860.6    0.00 
 119   15:50   0.65   58.3    41   16.6   317    21.9   860.7    0.00 
 119   16:00   0.58   58.1    40   16.7   318    22.1   860.6    0.00 
 119   16:10   0.51   57.9    43   16.6   312    22.0   860.6    0.00 
 119   16:20   0.48   57.9    42   15.2   319    20.7   860.7    0.00 
 119   16:30   0.45   57.5    44   16.3   310    23.0   860.8    0.00 
 119   16:40   0.40   57.2    43   15.9   310    20.8   860.8    0.00 
 119   16:50   0.36   57.2    44   13.7   319    20.5   860.8    0.00 
 119   17:00   0.33   57.1    44   14.1   324    20.1   860.8    0.00 
 119   17:10   0.30   56.7    46   13.6   329    18.3   860.9    0.00 
 119   17:20   0.28   56.6    46   14.1   323    18.9   860.9    0.00 
 119   17:30   0.28   56.4    46   14.3   316    19.1   860.8    0.00 
 119   17:40   0.25   56.4    46   15.6   323    20.2   860.8    0.00 
 119   17:50   0.19   55.8    47   15.4   321    20.3   860.8    0.00 
 119   18:00   0.17   55.3    49   14.5   321    19.4   860.9    0.00 
 119   18:10   0.11   54.6    49   14.2   325    19.9   861.0    0.00 
 119   18:20   0.03   53.1    51   13.8   324    18.5   861.0    0.00 
 119   18:30   0.02   52.4    52   13.2   330    18.9   861.0    0.00 
 119   18:40   0.01   52.1    54   12.0   326    18.0   861.0    0.00 
 119   18:50   0.01   51.2    55    9.8   322    13.7   861.0    0.00 
 119   19:00   0.00   50.6    55   10.9   316    14.1   861.1    0.00 
 119   19:10   0.00   50.5    56   11.2   320    15.4   861.3    0.00 
 119   19:20   0.00   50.5    56    9.9   316    12.9   861.5    0.00 
 119   19:30   0.00   50.6    56    8.6   322    11.0   861.6    0.00 
 119   19:40   0.00   50.9    55    9.5   329    12.6   861.7    0.00 
 119   19:50   0.00   50.4    56    7.6   318    10.6   861.8    0.00 
 119   20:00   0.00   49.2    61    5.3   308     6.2   861.9    0.00 
 119   20:10   0.00   49.5    57    4.7   329     7.7   861.9    0.00 
 119   20:20   0.00   49.8    56    6.8   310    10.7   862.0    0.00 
 119   20:30   0.00   50.2    54    9.0   310    11.3   862.0    0.00 
 119   20:40   0.00   49.8    55    6.4   326     9.9   862.2    0.00 
 119   20:50   0.00   47.9    61    4.3    20     7.3   862.3    0.00 
 119   21:00   0.00   48.0    60    4.4     9     8.3   862.3    0.00 
 119   21:10   0.00   47.2    61    3.3   353     4.6   862.3    0.00 
 119   21:20   0.00   45.9    66    3.2   338     5.5   862.3    0.00 
 119   21:30   0.00   44.5    67    1.8   268     3.9   862.3    0.00 
 119   21:40   0.00   45.6    63    1.2   314     3.1   862.3    0.00 
 119   21:50   0.00   45.8    62    4.6   313     6.9   862.2    0.00 
 119   22:00   0.00   45.5    63    4.5     5     7.8   862.4    0.00 
 119   22:10   0.00   45.9    62    2.9   131     8.6   862.4    0.00 
 119   22:20   0.00   45.5    63    5.4   122     7.7   862.5    0.00 
 119   22:30   0.00   43.2    69    5.0   140     7.1   862.5    0.00 
 119   22:40   0.00   40.9    76    5.0   173     7.2   862.6    0.00 
 119   22:50   0.00   40.3    76    2.1   205     6.0   862.7    0.00 
 119   23:00   0.00   41.2    76    3.1   219     6.5   862.8    0.00 
 119   23:10   0.00   41.1    74    1.8   271     5.6   862.9    0.00 
 119   23:20   0.00   40.4    75    2.2   242     4.5   862.9    0.00 
 119   23:30   0.00   39.8    76    3.5   216     6.3   862.9    0.00 
 119   23:40   0.00   42.4    69    1.8   250     4.0   862.8    0.00 
 119   23:50   0.00   41.9    70    4.1   240     6.5   862.8    0.00 
 120    0:00   0.00   43.1    66    4.8   135     7.3   862.8    0.00 
 120    0:10   0.00   41.2    72    3.7   148     5.2   862.9    0.00 
 120    0:20   0.00   41.3    72    1.8   260     4.9   862.9    0.00 
 120    0:30   0.00   39.6    76    3.1   223     5.2   862.9    0.00 
 120    0:40   0.00   39.2    78    4.0   249     7.4   862.8    0.00 
 120    0:50   0.00   43.3    67    2.5   236     5.8   862.7    0.00 
 120    1:00   0.00   42.2    70    3.8   239     8.2   862.6    0.00 
 120    1:10   0.00   44.7    64    2.7   259     6.1   862.4    0.00 
 120    1:20   0.00   44.6    64    3.5    24     5.0   862.3    0.00 
 120    1:30   0.00   44.2    64    1.4    81     4.4   862.2    0.00 
 120    1:40   0.00   43.4    65    3.4    82     5.6   862.2    0.00 
 120    1:50   0.00   41.7    69    1.3   331     3.2   862.3    0.00 
 120    2:00   0.00   43.8    64    3.0   324     7.2   862.4    0.00 
 120    2:10   0.00   41.8    69    3.5    36     5.1   862.4    0.00 
 120    2:20   0.00   39.5    75    3.2    62     5.2   862.5    0.00 
 120    2:30   0.00   37.4    83    2.7   165     3.5   862.5    0.00 
 120    2:40   0.00   37.4    85    2.7   206     4.2   862.6    0.00 
 120    2:50   0.00   37.6    86    3.3   245     4.3   862.7    0.00 
 120    3:00   0.00   37.7    86    3.9   252     4.8   862.7    0.00 
 120    3:10   0.00   38.4    86    3.8   244     4.9   862.8    0.00 
 120    3:20   0.00   38.2    87    3.3   243     4.5   862.9    0.00 
 120    3:30   0.00   38.1    88    1.6   268     3.2   862.9    0.00 
 120    3:40   0.00   37.9    86    3.8   302     5.5   863.0    0.00 

Return to Paradise Valley graphs page.


Western Regional Climate Center,wrcc@dri.edu